Time;durP1;ratioP1;P1;durP2;ratioP2;P2;SDS_P1;SDS_P2;PMS_P1;PMS_P2;Temp;Humidity;BMP_temperature;BMP_pressure;BME280_temperature;BME280_humidity;BME280_pressure;Samples;Min_cycle;Max_cycle;Signal;HPM_P1;HPM_P2
2022/09/14 00:01:43;;;;;;;6.15;4.68;;;;;;;15.94;56.88;94583.69;4198876;28;20156;-63
2022/09/14 00:03:45;;;;;;;10.18;4.97;;;;;;;15.90;56.89;94588.53;4212566;28;20062;-61
2022/09/14 00:05:47;;;;;;;6.85;5.20;;;;;;;15.90;56.96;94585.91;4204890;28;20055;-65
2022/09/14 00:07:49;;;;;;;8.13;5.15;;;;;;;15.87;57.12;94582.81;4197574;28;20047;-64
2022/09/14 00:09:51;;;;;;;7.60;4.88;;;;;;;15.88;57.23;94582.63;4194040;28;20063;-65
2022/09/14 00:11:53;;;;;;;7.57;5.15;;;;;;;15.76;57.26;94581.53;4203617;28;20083;-65
2022/09/14 00:13:56;;;;;;;6.22;5.28;;;;;;;15.68;57.41;94584.28;4211541;28;20492;-64
2022/09/14 00:16:06;;;;;;;7.63;5.38;;;;;;;15.67;57.85;94593.25;4202973;28;20043;-65
2022/09/14 00:18:09;;;;;;;7.20;5.13;;;;;;;15.60;58.04;94592.38;4207000;28;20040;-65
2022/09/14 00:20:11;;;;;;;7.82;5.40;;;;;;;15.52;58.11;94599.41;4192944;28;20551;-63
2022/09/14 00:22:12;;;;;;;7.40;5.43;;;;;;;15.51;58.16;94589.88;4211441;28;20135;-65
2022/09/14 00:24:14;;;;;;;8.20;5.50;;;;;;;15.57;58.27;94594.41;4211216;28;20123;-67
2022/09/14 00:26:18;;;;;;;6.82;4.95;;;;;;;15.60;57.88;94587.09;4209751;28;20097;-66
2022/09/14 00:28:20;;;;;;;8.07;5.53;;;;;;;15.63;58.18;94581.44;4198237;28;20511;-65
2022/09/14 00:30:22;;;;;;;8.38;5.03;;;;;;;15.65;58.18;94589.97;4204429;28;20707;-65
2022/09/14 00:32:24;;;;;;;7.28;5.38;;;;;;;15.67;58.11;94582.66;4203845;28;20063;-65
2022/09/14 00:34:26;;;;;;;6.13;5.28;;;;;;;15.68;57.88;94584.28;4207294;28;20136;-67
2022/09/14 00:36:29;;;;;;;9.38;5.20;;;;;;;15.68;58.12;94589.56;4202307;28;20055;-65
2022/09/14 00:38:31;;;;;;;6.20;4.63;;;;;;;15.69;57.49;94586.75;4211411;28;20132;-63
2022/09/14 00:40:33;;;;;;;5.63;5.00;;;;;;;15.70;57.41;94579.63;4208131;28;20051;-65
2022/09/14 00:42:35;;;;;;;5.65;5.03;;;;;;;15.70;57.57;94587.56;4211186;28;20532;-65
2022/09/14 00:44:37;;;;;;;6.37;4.87;;;;;;;15.71;57.73;94589.19;4211334;28;20087;-64
2022/09/14 00:46:41;;;;;;;9.02;5.25;;;;;;;15.68;57.54;94590.41;4210981;28;20056;-66
2022/09/14 00:48:43;;;;;;;7.60;4.90;;;;;;;15.72;57.56;94593.50;4210283;28;21555;-67
2022/09/14 00:50:45;;;;;;;5.75;4.50;;;;;;;15.71;57.72;94591.84;4205581;28;20066;-65
2022/09/14 00:52:49;;;;;;;7.50;5.22;;;;;;;15.72;57.76;94590.84;4194811;28;20151;-66
2022/09/14 00:54:55;;;;;;;7.00;4.40;;;;;;;15.72;57.65;94602.25;4193408;28;20084;-65
2022/09/14 00:56:58;;;;;;;5.65;4.70;;;;;;;15.68;57.56;94606.25;4197100;28;20097;-61
2022/09/14 00:59:05;;;;;;;6.53;4.88;;;;;;;15.68;57.23;94597.50;4194844;28;20083;-63
2022/09/14 01:01:09;;;;;;;12.68;4.57;;;;;;;15.67;56.93;94604.59;4204548;28;20063;-64
2022/09/14 01:03:10;;;;;;;12.45;5.28;;;;;;;15.66;56.66;94610.06;4208117;28;20051;-58
2022/09/14 01:05:13;;;;;;;4.95;4.15;;;;;;;15.65;56.80;94603.19;4205094;28;20080;-58
2022/09/14 01:07:31;;;;;;;3.95;3.55;;;;;;;15.60;56.88;94608.22;4209090;28;20153;-58
2022/09/14 01:09:52;;;;;;;4.53;4.00;;;;;;;15.56;56.82;94608.59;4209790;28;20176;-59
2022/09/14 01:12:13;;;;;;;5.93;4.40;;;;;;;15.56;56.79;94597.22;4203480;28;20430;-59
2022/09/14 01:14:30;;;;;;;4.68;4.18;;;;;;;15.54;56.57;94605.31;4203177;28;20664;-59
2022/09/14 01:16:37;;;;;;;4.93;3.97;;;;;;;15.51;57.10;94605.72;4210796;28;20135;-60
2022/09/14 01:18:59;;;;;;;4.20;3.80;;;;;;;15.49;56.54;94597.19;4199994;28;20449;-58
2022/09/14 01:21:14;;;;;;;6.60;4.05;;;;;;;15.49;56.80;94606.94;4210827;28;20052;-64
2022/09/14 01:23:37;;;;;;;5.88;3.88;;;;;;;15.39;57.16;94603.78;4209569;28;20051;-66
2022/09/14 01:26:03;;;;;;;5.20;4.13;;;;;;;15.33;57.31;94600.09;4200946;28;20060;-66
2022/09/14 01:28:11;;;;;;;5.97;4.07;;;;;;;15.31;57.18;94596.81;4210654;28;20071;-66
2022/09/14 01:30:18;;;;;;;5.50;4.22;;;;;;;15.33;57.24;94594.81;4214107;28;20044;-68
2022/09/14 01:32:35;;;;;;;4.82;3.92;;;;;;;15.34;57.28;94588.53;4187437;28;20312;-66
2022/09/14 01:34:43;;;;;;;4.72;4.22;;;;;;;15.35;57.16;94592.78;4210241;28;20563;-65
2022/09/14 01:36:50;;;;;;;5.00;3.80;;;;;;;15.33;57.60;94592.16;4209397;28;20048;-64
2022/09/14 01:38:52;;;;;;;6.50;4.25;;;;;;;15.30;57.39;94595.19;4212680;28;20119;-65
2022/09/14 01:40:55;;;;;;;5.72;3.85;;;;;;;15.25;57.69;94587.84;4210639;28;20131;-65
2022/09/14 01:43:03;;;;;;;7.90;4.80;;;;;;;15.18;57.99;94600.16;4213764;28;20485;-63
2022/09/14 01:45:08;;;;;;;5.80;4.18;;;;;;;15.18;58.21;94600.16;4212240;28;20079;-65
2022/09/14 01:47:34;;;;;;;5.35;4.10;;;;;;;15.14;58.53;94598.91;4211901;28;20055;-65
2022/09/14 01:49:42;;;;;;;6.80;4.65;;;;;;;15.15;58.66;94596.09;4211144;28;20044;-66
2022/09/14 01:51:50;;;;;;;5.20;4.38;;;;;;;14.83;58.51;94607.16;4204945;28;20114;-65
2022/09/14 01:53:56;;;;;;;6.97;4.20;;;;;;;14.49;59.25;94611.19;4197059;28;20493;-64
2022/09/14 01:56:01;;;;;;;5.35;4.32;;;;;;;14.49;59.68;94606.75;4197818;28;20040;-64
2022/09/14 01:58:08;;;;;;;5.97;4.57;;;;;;;14.63;59.63;94613.03;4212845;28;20043;-65
2022/09/14 02:00:15;;;;;;;6.03;4.43;;;;;;;14.76;59.83;94601.00;4213377;28;20056;-64
2022/09/14 02:02:28;;;;;;;6.43;4.72;;;;;;;14.64;59.51;94606.72;4211814;28;20063;-64
2022/09/14 02:04:47;;;;;;;7.97;5.30;;;;;;;14.50;60.35;94597.03;4213060;28;20717;-67
2022/09/14 02:06:49;;;;;;;6.63;5.03;;;;;;;14.36;60.78;94606.59;4216936;28;20452;-63
2022/09/14 02:08:52;;;;;;;5.50;4.82;;;;;;;14.23;61.23;94601.97;4213431;28;20135;-64
2022/09/14 02:10:54;;;;;;;6.75;5.30;;;;;;;14.24;60.81;94590.44;4210050;28;20082;-65
2022/09/14 02:12:55;;;;;;;7.18;4.50;;;;;;;14.20;60.66;94601.53;4212111;28;20645;-64
2022/09/14 02:14:57;;;;;;;6.32;4.97;;;;;;;14.21;60.74;94608.44;4212868;28;20491;-65
2022/09/14 02:16:59;;;;;;;5.65;4.57;;;;;;;14.15;61.16;94604.69;4212972;28;20048;-65
2022/09/14 02:19:01;;;;;;;5.43;4.80;;;;;;;14.22;61.02;94610.03;4212083;28;20126;-64
2022/09/14 02:21:11;;;;;;;7.82;4.97;;;;;;;14.31;60.79;94609.78;4211652;28;20135;-65
2022/09/14 02:23:13;;;;;;;6.72;4.50;;;;;;;14.35;60.36;94610.25;4211448;28;20085;-65
2022/09/14 02:25:14;;;;;;;6.03;4.90;;;;;;;14.46;60.19;94606.31;4210284;28;20513;-65
2022/09/14 02:27:16;;;;;;;8.00;4.70;;;;;;;14.53;60.11;94594.81;4212842;28;20056;-65
2022/09/14 02:29:18;;;;;;;6.78;5.25;;;;;;;14.64;60.17;94592.75;4212516;28;20047;-65
2022/09/14 02:31:38;;;;;;;7.32;4.78;;;;;;;14.68;59.88;94591.38;4211710;28;20226;-66
2022/09/14 02:33:52;;;;;;;5.93;4.82;;;;;;;14.74;59.83;94601.19;4212629;28;20086;-65
2022/09/14 02:35:54;;;;;;;7.60;4.63;;;;;;;14.81;59.19;94601.25;4208825;28;20056;-65
2022/09/14 02:38:18;;;;;;;6.55;4.75;;;;;;;14.77;59.55;94600.78;4209523;28;20136;-64
2022/09/14 02:40:33;;;;;;;7.38;4.82;;;;;;;14.76;59.68;94593.09;4209165;28;20051;-64
2022/09/14 02:42:41;;;;;;;8.27;4.70;;;;;;;14.71;59.48;94605.00;4211505;28;20216;-66
2022/09/14 02:44:42;;;;;;;5.90;5.30;;;;;;;14.43;60.29;94610.13;4212028;28;20168;-66
2022/09/14 02:47:19;;;;;;;6.72;5.30;;;;;;;14.33;60.82;94607.78;4211269;28;20067;-66
2022/09/14 02:49:27;;;;;;;8.40;4.93;;;;;;;14.40;60.29;94610.50;4205065;28;20052;-65
2022/09/14 02:51:38;;;;;;;9.02;5.43;;;;;;;14.39;60.78;94606.22;4211435;28;20048;-65
2022/09/14 02:53:58;;;;;;;7.10;5.38;;;;;;;14.44;60.84;94608.31;4199668;28;20083;-65
2022/09/14 02:56:04;;;;;;;6.13;5.10;;;;;;;14.31;60.84;94606.34;4210035;28;20106;-64
2022/09/14 02:58:11;;;;;;;7.80;4.75;;;;;;;14.35;61.05;94610.25;4208791;28;20051;-64
2022/09/14 03:00:13;;;;;;;8.20;4.93;;;;;;;14.40;60.82;94613.13;4210785;28;20435;-63
2022/09/14 03:02:15;;;;;;;8.25;4.80;;;;;;;14.48;60.42;94612.22;4212158;28;20044;-64
2022/09/14 03:04:17;;;;;;;5.70;5.10;;;;;;;14.52;60.40;94601.13;4212270;28;20048;-65
2022/09/14 03:06:19;;;;;;;6.22;4.78;;;;;;;14.57;60.61;94608.50;4207852;28;20079;-63
2022/09/14 03:08:20;;;;;;;6.30;4.95;;;;;;;14.61;60.11;94620.31;4219740;28;20158;-58
2022/09/14 03:10:22;;;;;;;6.25;4.90;;;;;;;14.59;60.38;94609.13;4208148;28;20058;-60
2022/09/14 03:12:23;;;;;;;9.45;5.40;;;;;;;14.64;59.96;94604.09;4212262;28;20322;-60
2022/09/14 03:14:25;;;;;;;8.50;5.38;;;;;;;14.69;60.20;94611.44;4211768;28;20460;-60
2022/09/14 03:16:27;;;;;;;5.57;4.90;;;;;;;14.39;60.25;94615.94;4212278;28;20469;-59
2022/09/14 03:18:28;;;;;;;5.40;4.72;;;;;;;14.19;60.89;94610.44;4204332;28;20063;-56
2022/09/14 03:20:31;;;;;;;9.27;5.25;;;;;;;14.15;61.20;94612.59;4204178;28;20121;-60
2022/09/14 03:22:33;;;;;;;6.47;4.90;;;;;;;14.22;61.27;94612.69;4204247;28;20459;-59
2022/09/14 03:24:35;;;;;;;6.78;5.05;;;;;;;14.32;60.62;94608.75;4205211;28;20080;-58
2022/09/14 03:26:37;;;;;;;7.88;4.75;;;;;;;14.42;60.36;94619.03;4199555;28;20063;-59
2022/09/14 03:28:40;;;;;;;5.93;4.50;;;;;;;14.48;60.10;94613.03;4193919;28;20551;-59
2022/09/14 03:30:41;;;;;;;5.88;4.68;;;;;;;14.53;59.72;94607.19;4208360;28;20127;-59
2022/09/14 03:32:43;;;;;;;7.07;4.70;;;;;;;14.53;59.94;94601.91;4199948;28;20095;-57
2022/09/14 03:34:45;;;;;;;7.88;4.97;;;;;;;14.49;60.37;94605.94;4200963;28;20059;-59
2022/09/14 03:36:46;;;;;;;10.43;4.88;;;;;;;14.48;60.38;94606.94;4201892;28;20121;-58
2022/09/14 03:38:51;;;;;;;9.43;5.40;;;;;;;14.49;60.64;94608.56;4199447;28;20524;-61
2022/09/14 03:40:52;;;;;;;7.25;5.18;;;;;;;14.46;60.79;94606.31;4204800;28;20123;-59
2022/09/14 03:42:54;;;;;;;7.75;5.70;;;;;;;14.45;60.77;94609.94;4204685;28;20090;-59
2022/09/14 03:44:56;;;;;;;7.97;5.20;;;;;;;14.50;60.46;94602.31;4204854;28;20123;-60
2022/09/14 03:46:58;;;;;;;8.73;5.35;;;;;;;14.53;60.90;94609.84;4204111;28;20054;-61
2022/09/14 03:49:00;;;;;;;8.20;6.13;;;;;;;14.57;60.59;94605.03;4206681;28;20076;-59
2022/09/14 03:51:03;;;;;;;12.68;5.63;;;;;;;14.57;60.90;94605.84;4202197;28;20048;-59
2022/09/14 03:53:05;;;;;;;9.57;6.07;;;;;;;14.56;61.24;94617.38;4202694;28;20122;-60
2022/09/14 03:55:08;;;;;;;11.15;6.45;;;;;;;14.59;61.10;94609.13;4199602;28;20058;-59
2022/09/14 03:57:09;;;;;;;9.27;6.30;;;;;;;14.59;61.19;94611.75;4200039;28;20080;-59
2022/09/14 03:59:11;;;;;;;12.45;6.15;;;;;;;14.63;60.97;94607.75;4202730;28;20308;-58
2022/09/14 04:01:15;;;;;;;8.63;6.35;;;;;;;14.60;61.32;94610.75;4211740;28;20083;-58
2022/09/14 04:03:17;;;;;;;10.77;6.28;;;;;;;14.56;61.64;94622.66;4211648;28;20094;-60
2022/09/14 04:05:19;;;;;;;11.60;6.50;;;;;;;14.52;61.67;94613.47;4205703;28;20052;-60
2022/09/14 04:07:22;;;;;;;11.97;6.57;;;;;;;14.51;61.43;94612.63;4212267;28;20051;-60
2022/09/14 04:09:24;;;;;;;15.45;6.32;;;;;;;14.45;61.67;94609.94;4210808;28;20117;-61
2022/09/14 04:11:27;;;;;;;9.95;6.60;;;;;;;14.48;61.70;94610.38;4203370;28;20079;-60
2022/09/14 04:13:28;;;;;;;11.63;6.07;;;;;;;14.51;61.91;94615.28;4203293;28;20075;-58
2022/09/14 04:15:30;;;;;;;10.05;6.10;;;;;;;14.56;61.74;94614.75;4199441;28;20059;-60
2022/09/14 04:17:32;;;;;;;9.07;6.25;;;;;;;14.61;61.13;94616.84;4212057;28;20063;-65
2022/09/14 04:19:36;;;;;;;9.52;6.07;;;;;;;14.63;61.12;94613.03;4208543;28;20079;-66
2022/09/14 04:21:38;;;;;;;11.57;5.80;;;;;;;14.67;61.56;94608.19;4210569;28;20204;-64
2022/09/14 04:23:39;;;;;;;12.38;6.60;;;;;;;14.70;61.58;94615.72;4195892;28;20051;-66
2022/09/14 04:26:09;;;;;;;7.32;5.68;;;;;;;14.76;61.04;94614.19;4204749;28;20416;-66
2022/09/14 04:28:11;;;;;;;11.93;6.55;;;;;;;14.74;61.22;94612.53;4209757;28;20064;-65
2022/09/14 04:30:21;;;;;;;10.02;6.60;;;;;;;14.64;62.15;94605.94;4202267;28;20052;-65
2022/09/14 04:32:22;;;;;;;13.02;6.07;;;;;;;14.68;61.65;94605.38;4201831;28;20044;-64
2022/09/14 04:34:24;;;;;;;8.95;6.53;;;;;;;14.70;61.47;94605.19;4196983;28;20080;-66
2022/09/14 04:36:29;;;;;;;10.70;6.32;;;;;;;14.79;61.17;94619.06;4198102;28;20064;-67
2022/09/14 04:38:32;;;;;;;9.63;6.13;;;;;;;14.82;60.97;94616.03;4203348;28;20507;-64
2022/09/14 04:40:34;;;;;;;10.90;5.55;;;;;;;14.90;60.59;94610.66;4205101;28;20070;-65
2022/09/14 04:42:35;;;;;;;8.50;6.25;;;;;;;14.94;60.22;94612.72;4211330;28;20076;-67
2022/09/14 04:44:37;;;;;;;13.38;5.93;;;;;;;14.94;60.13;94620.63;4211276;28;20082;-69
2022/09/14 04:46:40;;;;;;;10.48;6.25;;;;;;;14.99;60.11;94619.25;4211612;28;20737;-67
2022/09/14 04:48:47;;;;;;;14.27;6.03;;;;;;;15.09;60.16;94620.59;4211197;28;20032;-66
2022/09/14 04:50:49;;;;;;;12.40;6.63;;;;;;;15.18;59.92;94618.63;4210884;28;20697;-64
2022/09/14 04:52:50;;;;;;;13.77;6.03;;;;;;;15.23;59.53;94624.19;4211470;28;20052;-66
2022/09/14 04:54:52;;;;;;;11.30;6.50;;;;;;;15.26;59.64;94620.34;4209148;28;20076;-65
2022/09/14 04:56:54;;;;;;;9.75;6.25;;;;;;;15.20;59.90;94631.66;4209757;28;20059;-64
2022/09/14 04:58:58;;;;;;;11.60;7.32;;;;;;;15.24;59.64;94630.25;4210889;28;20122;-64
2022/09/14 05:01:03;;;;;;;15.45;7.35;;;;;;;15.29;59.49;94633.13;4210188;28;20075;-64
2022/09/14 05:03:05;;;;;;;11.65;7.13;;;;;;;15.35;59.67;94635.84;4211462;28;20082;-69
2022/09/14 05:05:07;;;;;;;12.82;7.45;;;;;;;15.43;59.59;94634.91;4213162;28;20135;-65
2022/09/14 05:07:09;;;;;;;20.10;7.45;;;;;;;15.41;58.93;94638.75;4213649;28;20391;-69
2022/09/14 05:09:16;;;;;;;15.70;7.80;;;;;;;15.35;59.30;94637.66;4216819;28;20388;-69
2022/09/14 05:11:19;;;;;;;16.65;7.72;;;;;;;15.33;59.31;94644.94;4212716;28;20553;-63
2022/09/14 05:13:22;;;;;;;;;;;;;;;15.07;59.79;94646.34;4207264;28;20131;-66
2022/09/14 05:15:23;;;;;;;10.77;7.18;;;;;;;15.06;60.01;94646.53;4208442;28;19959;-65
2022/09/14 05:17:25;;;;;;;10.68;6.85;;;;;;;15.04;60.13;94641.44;4214465;28;20063;-65
2022/09/14 05:19:27;;;;;;;12.40;7.20;;;;;;;15.03;59.88;94647.72;4204768;28;20115;-66
2022/09/14 05:21:30;;;;;;;11.10;7.10;;;;;;;15.01;60.11;94646.28;4198818;28;20056;-65
2022/09/14 05:23:32;;;;;;;15.02;7.25;;;;;;;15.09;60.19;94648.78;4211454;28;20040;-65
2022/09/14 05:25:34;;;;;;;11.80;7.07;;;;;;;15.22;59.61;94654.19;4196592;28;20126;-66
2022/09/14 05:27:36;;;;;;;9.98;7.53;;;;;;;15.34;59.19;94646.59;4198571;28;20136;-65
2022/09/14 05:29:39;;;;;;;12.18;7.47;;;;;;;15.47;58.89;94651.19;4210363;28;20051;-65
2022/09/14 05:31:42;;;;;;;14.55;7.40;;;;;;;15.55;58.63;94657.16;4199712;28;20048;-66
2022/09/14 05:33:44;;;;;;;9.23;6.78;;;;;;;15.67;58.37;94651.34;4199321;28;20160;-66
2022/09/14 05:35:46;;;;;;;12.20;7.07;;;;;;;15.76;57.77;94650.19;4207278;28;20075;-65
2022/09/14 05:37:48;;;;;;;11.10;7.32;;;;;;;15.81;57.53;94658.38;4215319;28;20067;-66
2022/09/14 05:39:49;;;;;;;12.88;8.05;;;;;;;15.72;57.65;94648.94;4197331;28;20798;-66
2022/09/14 05:41:51;;;;;;;15.73;8.00;;;;;;;15.74;58.07;94657.50;4210896;28;20764;-65
2022/09/14 05:43:53;;;;;;;14.45;8.52;;;;;;;15.83;57.86;94659.00;4213202;28;20052;-66
2022/09/14 05:45:54;;;;;;;16.88;8.38;;;;;;;15.97;57.42;94655.44;4207865;28;20040;-60
2022/09/14 05:48:05;;;;;;;8.60;7.20;;;;;;;15.96;57.12;94658.28;4198252;28;20483;-60
2022/09/14 05:50:07;;;;;;;17.27;7.32;;;;;;;15.96;57.50;94664.38;4197587;28;20140;-59
2022/09/14 05:52:09;;;;;;;10.93;7.95;;;;;;;16.02;57.43;94670.69;4197806;28;20452;-60
2022/09/14 05:54:11;;;;;;;12.98;7.28;;;;;;;16.12;56.70;94668.53;4197959;28;20132;-60
2022/09/14 05:56:13;;;;;;;13.13;8.48;;;;;;;16.02;57.06;94669.91;4206198;28;20163;-58
2022/09/14 05:58:15;;;;;;;12.98;9.32;;;;;;;15.69;57.95;94673.09;4211431;28;20071;-59
2022/09/14 06:00:17;;;;;;;14.20;8.73;;;;;;;15.31;59.39;94673.34;4198164;28;20052;-61
2022/09/14 06:02:19;;;;;;;16.15;9.68;;;;;;;15.00;60.49;94678.94;4198265;28;20059;-59
2022/09/14 06:04:21;;;;;;;21.48;9.70;;;;;;;14.99;60.64;94675.47;4209119;28;20052;-59
2022/09/14 06:06:23;;;;;;;11.18;8.57;;;;;;;15.11;59.97;94678.44;4199924;28;20062;-59
2022/09/14 06:08:24;;;;;;;17.83;8.65;;;;;;;15.23;59.89;94676.13;4211794;28;20052;-62
2022/09/14 06:10:26;;;;;;;14.93;8.35;;;;;;;15.32;58.85;94672.38;4209143;28;20052;-61
2022/09/14 06:12:28;;;;;;;10.80;8.15;;;;;;;15.50;58.86;94664.78;4213671;28;20087;-62
2022/09/14 06:14:30;;;;;;;16.38;8.32;;;;;;;15.69;58.48;94670.44;4198245;28;20083;-61
2022/09/14 06:16:32;;;;;;;11.80;7.45;;;;;;;15.92;57.85;94671.06;4212772;28;20109;-63
2022/09/14 06:18:35;;;;;;;21.77;9.10;;;;;;;16.07;57.78;94657.75;4197580;28;20052;-59
2022/09/14 06:20:36;;;;;;;13.23;8.38;;;;;;;16.24;57.56;94663.53;4201360;28;20131;-62
2022/09/14 06:22:38;;;;;;;14.85;8.65;;;;;;;16.41;56.71;94656.09;4206637;28;20091;-60
2022/09/14 06:24:40;;;;;;;13.50;9.63;;;;;;;16.30;56.03;94660.09;4199026;28;20051;-61
2022/09/14 06:26:41;;;;;;;14.52;7.60;;;;;;;16.18;56.48;94659.03;4198083;28;20095;-61
2022/09/14 06:28:43;;;;;;;9.38;7.38;;;;;;;16.17;56.52;94662.66;4212283;28;20048;-63
2022/09/14 06:30:45;;;;;;;11.65;6.90;;;;;;;16.37;56.39;94665.44;4213422;28;20159;-61
2022/09/14 06:32:47;;;;;;;8.20;7.03;;;;;;;16.57;55.81;94658.41;4199176;28;20458;-59
2022/09/14 06:34:48;;;;;;;11.35;7.03;;;;;;;16.79;55.23;94660.94;4200229;28;20040;-60
2022/09/14 06:36:50;;;;;;;12.00;6.80;;;;;;;16.89;55.12;94655.31;4197474;28;20110;-62
2022/09/14 06:38:52;;;;;;;9.35;7.15;;;;;;;17.02;54.99;94655.34;4197225;28;20089;-61
2022/09/14 06:40:59;;;;;;;10.13;6.93;;;;;;;17.15;54.80;94655.38;4201239;28;20046;-60
2022/09/14 06:43:01;;;;;;;11.70;6.95;;;;;;;17.28;54.39;94653.78;4198671;28;20091;-62
2022/09/14 06:45:03;;;;;;;10.00;6.68;;;;;;;17.42;53.82;94652.75;4208887;28;20134;-58
2022/09/14 06:47:05;;;;;;;13.15;6.93;;;;;;;17.44;53.62;94655.19;4211677;28;20319;-60
2022/09/14 06:49:12;;;;;;;12.48;7.95;;;;;;;17.44;53.03;94663.16;4213004;28;20677;-60
2022/09/14 06:51:31;;;;;;;11.13;7.40;;;;;;;17.28;53.09;94669.66;4212540;28;20044;-61
2022/09/14 06:53:32;;;;;;;8.88;6.65;;;;;;;17.02;53.34;94660.63;4213152;28;20044;-63
2022/09/14 06:55:34;;;;;;;41.47;24.33;;;;;;;17.06;54.37;94663.72;4211308;28;20044;-59
2022/09/14 06:57:36;;;;;;;7.60;6.72;;;;;;;17.11;53.64;94670.00;4212755;28;20056;-60
2022/09/14 06:59:43;;;;;;;10.05;6.45;;;;;;;17.16;53.60;94669.41;4208948;28;20048;-61
2022/09/14 07:01:45;;;;;;;8.50;6.65;;;;;;;16.99;53.82;94669.78;4212277;28;20079;-66
2022/09/14 07:03:47;;;;;;;9.02;6.50;;;;;;;16.54;54.77;94668.56;4212256;28;20047;-67
2022/09/14 07:05:49;;;;;;;11.30;7.00;;;;;;;16.42;55.30;94675.44;4211821;28;20135;-65
2022/09/14 07:07:52;;;;;;;8.63;6.63;;;;;;;16.31;56.28;94674.97;4212336;28;20143;-67
2022/09/14 07:09:53;;;;;;;8.68;6.10;;;;;;;16.61;55.73;94666.78;4212474;28;20047;-67
2022/09/14 07:11:55;;;;;;;12.02;7.03;;;;;;;16.89;55.05;94661.41;4213145;28;20143;-66
2022/09/14 07:14:01;;;;;;;9.65;6.50;;;;;;;17.05;54.80;94660.22;4212048;28;20138;-68
2022/09/14 07:16:03;;;;;;;11.05;6.80;;;;;;;17.08;54.59;94649.25;4212208;28;20565;-70
2022/09/14 07:18:04;;;;;;;10.00;7.30;;;;;;;17.16;54.67;94651.72;4200100;28;20548;-66
2022/09/14 07:20:06;;;;;;;9.82;6.68;;;;;;;17.32;54.18;94650.50;4195176;28;20080;-69
2022/09/14 07:22:08;;;;;;;11.77;6.28;;;;;;;17.33;54.19;94646.03;4195792;28;20493;-64
2022/09/14 07:24:13;;;;;;;9.38;6.57;;;;;;;17.47;53.59;94652.16;4196564;28;20127;-62
2022/09/14 07:26:19;;;;;;;10.95;6.32;;;;;;;17.61;54.19;94654.59;4194626;28;20520;-59
2022/09/14 07:28:20;;;;;;;11.88;6.13;;;;;;;17.84;53.61;94645.47;4196221;28;20076;-60
2022/09/14 07:30:23;;;;;;;6.68;4.72;;;;;;;18.09;52.79;94653.59;4196179;28;20104;-60
2022/09/14 07:32:25;;;;;;;10.50;6.00;;;;;;;18.35;52.17;94649.25;4201112;28;20048;-63
2022/09/14 07:34:27;;;;;;;9.30;6.07;;;;;;;18.42;52.27;94642.91;4199330;28;20082;-61
2022/09/14 07:36:30;;;;;;;10.48;5.45;;;;;;;18.53;51.67;94640.63;4210545;28;20489;-61
2022/09/14 07:38:35;;;;;;;11.48;5.63;;;;;;;18.69;51.25;94648.13;4205538;28;20520;-63
2022/09/14 07:40:57;;;;;;;7.15;5.78;;;;;;;18.46;50.58;94645.16;4201616;28;20044;-57
2022/09/14 07:43:00;;;;;;;10.30;6.20;;;;;;;18.54;50.98;94647.53;4212142;28;20560;-59
2022/09/14 07:45:03;;;;;;;9.10;5.68;;;;;;;18.73;50.84;94651.16;4212046;28;20055;-59
2022/09/14 07:47:05;;;;;;;13.15;7.38;;;;;;;18.62;50.84;94647.31;4211794;28;20431;-61
2022/09/14 07:49:08;;;;;;;14.70;6.00;;;;;;;18.78;50.37;94648.72;4211641;28;20126;-60
2022/09/14 07:51:10;;;;;;;10.05;6.55;;;;;;;18.77;50.78;94655.00;4210841;28;20075;-60
2022/09/14 07:53:13;;;;;;;15.05;6.40;;;;;;;18.98;50.34;94648.63;4211435;28;20067;-62
2022/09/14 07:55:15;;;;;;;11.75;5.47;;;;;;;19.16;50.25;94651.38;4210381;28;20048;-59
2022/09/14 07:57:16;;;;;;;13.18;6.45;;;;;;;19.33;49.93;94643.72;4210526;28;20131;-62
2022/09/14 07:59:18;;;;;;;8.77;5.40;;;;;;;19.51;49.28;94650.13;4211539;28;20079;-59
2022/09/14 08:01:37;;;;;;;10.25;6.00;;;;;;;19.44;48.20;94658.97;4211562;28;20044;-61
2022/09/14 08:03:44;;;;;;;10.05;5.78;;;;;;;19.24;49.56;94658.28;4210903;28;20055;-62
2022/09/14 08:05:45;;;;;;;10.20;5.88;;;;;;;18.76;49.93;94656.06;4210032;28;20412;-63
2022/09/14 08:07:52;;;;;;;10.68;5.90;;;;;;;18.57;50.67;94663.06;4211180;28;20091;-60
2022/09/14 08:09:54;;;;;;;10.23;5.60;;;;;;;18.42;51.34;94656.16;4209580;28;20815;-61
2022/09/14 08:11:56;;;;;;;8.63;5.65;;;;;;;18.42;51.08;94656.16;4207342;28;20070;-62
2022/09/14 08:14:08;;;;;;;9.90;5.57;;;;;;;18.35;51.33;94651.91;4210081;28;20409;-62
2022/09/14 08:16:11;;;;;;;10.40;5.50;;;;;;;18.71;51.14;94647.88;4211275;28;20048;-60
2022/09/14 08:18:13;;;;;;;11.75;5.20;;;;;;;19.11;50.08;94643.25;4198078;28;20428;-57
2022/09/14 08:20:15;;;;;;;11.47;5.57;;;;;;;19.32;49.58;94643.94;4194550;28;20059;-61
2022/09/14 08:22:17;;;;;;;9.88;5.18;;;;;;;19.52;49.47;94646.44;4194949;28;20281;-61
2022/09/14 08:24:20;;;;;;;9.85;5.57;;;;;;;19.69;48.76;94644.09;4204752;28;20485;-61
2022/09/14 08:26:23;;;;;;;9.10;5.43;;;;;;;19.60;48.31;94636.38;4195444;28;20137;-60
2022/09/14 08:28:24;;;;;;;10.15;4.85;;;;;;;19.69;48.36;94639.56;4198663;28;20072;-61
2022/09/14 08:30:26;;;;;;;8.20;5.18;;;;;;;19.94;48.29;94633.44;4202508;28;20091;-59
2022/09/14 08:32:27;;;;;;;9.93;4.40;;;;;;;20.19;47.62;94638.75;4194971;28;20044;-61
2022/09/14 08:34:29;;;;;;;12.32;6.00;;;;;;;20.29;46.66;94632.94;4206631;28;20122;-61
2022/09/14 08:36:34;;;;;;;7.25;5.40;;;;;;;20.04;47.42;94634.56;4206472;28;20131;-60
2022/09/14 08:38:36;;;;;;;7.50;5.22;;;;;;;19.83;47.56;94629.66;4207541;28;20663;-61
2022/09/14 08:40:44;;;;;;;9.35;6.03;;;;;;;19.70;48.10;94643.06;4206278;28;20067;-62
2022/09/14 08:42:47;;;;;;;10.40;5.05;;;;;;;19.64;48.05;94636.75;4209588;28;20062;-61
2022/09/14 08:44:55;;;;;;;17.50;6.22;;;;;;;19.83;48.00;94634.97;4200121;28;20504;-61
2022/09/14 08:47:01;;;;;;;7.07;5.28;;;;;;;20.04;47.52;94629.25;4198620;28;20076;-61
2022/09/14 08:49:12;;;;;;;9.90;5.70;;;;;;;20.42;47.31;94630.94;4200252;28;20049;-61
2022/09/14 08:51:14;;;;;;;8.18;5.25;;;;;;;20.31;46.59;94633.53;4199747;28;20045;-60
2022/09/14 08:53:15;;;;;;;13.85;5.45;;;;;;;20.42;46.33;94627.47;4200261;28;20071;-61
2022/09/14 08:55:23;;;;;;;7.60;6.45;;;;;;;20.28;46.77;94629.44;4198291;28;20048;-60
2022/09/14 08:57:43;;;;;;;9.85;5.80;;;;;;;20.13;47.13;94623.66;4207453;28;20047;-61
2022/09/14 08:59:58;;;;;;;10.30;5.63;;;;;;;20.20;47.15;94613.78;4214983;28;20143;-64
2022/09/14 09:02:19;;;;;;;8.80;5.45;;;;;;;20.32;46.80;94622.63;4199644;28;20048;-60
2022/09/14 09:04:36;;;;;;;12.43;5.28;;;;;;;20.58;46.73;94613.56;4212612;28;20083;-62
2022/09/14 09:06:56;;;;;;;7.05;4.85;;;;;;;20.93;46.21;94615.59;4199273;28;20040;-59
2022/09/14 09:09:27;;;;;;;9.98;5.22;;;;;;;21.35;45.35;94614.81;4209792;28;20054;-61
2022/09/14 09:11:36;;;;;;;11.85;5.50;;;;;;;21.55;44.52;94617.19;4212056;28;20041;-60
2022/09/14 09:13:39;;;;;;;9.30;5.85;;;;;;;21.76;44.69;94611.31;4213624;28;20523;-61
2022/09/14 09:15:51;;;;;;;15.77;6.30;;;;;;;21.53;44.51;94608.63;4210987;28;20055;-61
2022/09/14 09:17:58;;;;;;;12.27;6.67;;;;;;;21.13;44.95;94612.66;4213765;28;20105;-61
2022/09/14 09:20:23;;;;;;;10.13;6.43;;;;;;;20.93;45.66;94604.97;4212953;28;20054;-61
2022/09/14 09:22:28;;;;;;;9.23;5.75;;;;;;;20.93;46.15;94606.78;4216335;28;20080;-60
2022/09/14 09:24:39;;;;;;;13.20;6.82;;;;;;;21.10;45.39;94606.97;4214634;28;20544;-63
2022/09/14 09:26:43;;;;;;;13.40;6.57;;;;;;;21.28;45.30;94604.25;4214423;28;20444;-61
2022/09/14 09:28:51;;;;;;;9.82;5.82;;;;;;;21.19;44.80;94600.31;4197743;28;20054;-62
2022/09/14 09:30:54;;;;;;;10.10;5.82;;;;;;;21.37;45.02;94605.53;4215675;28;20099;-61
2022/09/14 09:32:56;;;;;;;11.50;5.57;;;;;;;21.71;44.62;94602.41;4214777;28;20131;-61
2022/09/14 09:34:58;;;;;;;11.32;5.32;;;;;;;22.01;44.23;94600.44;4214949;28;20076;-62
2022/09/14 09:36:59;;;;;;;10.27;5.50;;;;;;;22.24;43.32;94604.97;4215479;28;20079;-60
2022/09/14 09:39:02;;;;;;;8.57;5.25;;;;;;;22.54;42.52;94608.50;4215328;28;20469;-62
2022/09/14 09:41:18;;;;;;;8.75;4.60;;;;;;;22.83;42.49;94607.50;4210976;28;20078;-63
2022/09/14 09:43:20;;;;;;;15.55;6.07;;;;;;;22.41;42.91;94605.06;4203068;28;20127;-63
2022/09/14 09:45:58;;;;;;;11.13;6.47;;;;;;;22.42;42.63;94605.88;4204156;28;20102;-63